sensor_id;sensor_type;location;lat;lon;timestamp;temperature;humidity
11836;DHT22;5977;51.972;7.640;2023-12-22T00:01:34;18.80;86.80
11836;DHT22;5977;51.972;7.640;2023-12-22T00:04:02;19.00;85.50
11836;DHT22;5977;51.972;7.640;2023-12-22T00:06:32;19.20;88.30
11836;DHT22;5977;51.972;7.640;2023-12-22T00:09:01;18.80;84.00
11836;DHT22;5977;51.972;7.640;2023-12-22T00:11:29;18.60;85.80
11836;DHT22;5977;51.972;7.640;2023-12-22T00:13:57;18.70;89.30
11836;DHT22;5977;51.972;7.640;2023-12-22T00:16:25;18.90;89.00
11836;DHT22;5977;51.972;7.640;2023-12-22T00:18:53;18.90;87.20
11836;DHT22;5977;51.972;7.640;2023-12-22T00:21:22;18.80;85.30
11836;DHT22;5977;51.972;7.640;2023-12-22T00:23:50;18.80;87.60
11836;DHT22;5977;51.972;7.640;2023-12-22T00:26:19;18.70;83.90
11836;DHT22;5977;51.972;7.640;2023-12-22T00:28:47;18.70;88.80
11836;DHT22;5977;51.972;7.640;2023-12-22T00:31:15;18.70;84.40
11836;DHT22;5977;51.972;7.640;2023-12-22T00:33:43;18.50;85.70
11836;DHT22;5977;51.972;7.640;2023-12-22T00:36:11;18.50;83.80
11836;DHT22;5977;51.972;7.640;2023-12-22T00:38:40;18.10;86.40
11836;DHT22;5977;51.972;7.640;2023-12-22T00:41:08;18.40;90.40
11836;DHT22;5977;51.972;7.640;2023-12-22T00:43:38;18.40;88.40
11836;DHT22;5977;51.972;7.640;2023-12-22T00:46:06;18.30;85.90
11836;DHT22;5977;51.972;7.640;2023-12-22T00:48:34;17.80;84.80
11836;DHT22;5977;51.972;7.640;2023-12-22T00:51:01;17.80;90.40
11836;DHT22;5977;51.972;7.640;2023-12-22T00:53:29;17.80;89.70
11836;DHT22;5977;51.972;7.640;2023-12-22T00:55:57;18.00;90.70
11836;DHT22;5977;51.972;7.640;2023-12-22T00:58:25;18.10;87.10
11836;DHT22;5977;51.972;7.640;2023-12-22T01:00:54;17.60;89.40
11836;DHT22;5977;51.972;7.640;2023-12-22T01:03:22;18.10;90.00
11836;DHT22;5977;51.972;7.640;2023-12-22T01:05:50;17.90;89.70
11836;DHT22;5977;51.972;7.640;2023-12-22T01:08:18;18.00;90.10
11836;DHT22;5977;51.972;7.640;2023-12-22T01:10:47;18.40;92.20
11836;DHT22;5977;51.972;7.640;2023-12-22T01:13:15;18.40;90.90
11836;DHT22;5977;51.972;7.640;2023-12-22T01:15:43;18.90;90.90
11836;DHT22;5977;51.972;7.640;2023-12-22T01:18:12;18.60;88.00
11836;DHT22;5977;51.972;7.640;2023-12-22T01:20:40;18.60;90.30
11836;DHT22;5977;51.972;7.640;2023-12-22T01:23:08;18.50;90.80
11836;DHT22;5977;51.972;7.640;2023-12-22T01:25:36;18.50;90.90
11836;DHT22;5977;51.972;7.640;2023-12-22T01:28:04;18.40;90.30
11836;DHT22;5977;51.972;7.640;2023-12-22T01:30:32;18.50;91.10
11836;DHT22;5977;51.972;7.640;2023-12-22T01:33:00;18.50;89.60
11836;DHT22;5977;51.972;7.640;2023-12-22T01:35:29;18.40;90.70
11836;DHT22;5977;51.972;7.640;2023-12-22T01:37:57;18.30;90.70
11836;DHT22;5977;51.972;7.640;2023-12-22T01:40:25;18.30;90.40
11836;DHT22;5977;51.972;7.640;2023-12-22T01:42:53;18.60;91.10
11836;DHT22;5977;51.972;7.640;2023-12-22T01:45:21;18.40;87.40
11836;DHT22;5977;51.972;7.640;2023-12-22T01:47:49;18.40;90.40
11836;DHT22;5977;51.972;7.640;2023-12-22T01:50:17;18.60;90.80
11836;DHT22;5977;51.972;7.640;2023-12-22T01:52:47;18.70;88.90
11836;DHT22;5977;51.972;7.640;2023-12-22T01:55:16;18.70;90.80
11836;DHT22;5977;51.972;7.640;2023-12-22T01:57:46;18.50;89.30
11836;DHT22;5977;51.972;7.640;2023-12-22T02:00:15;18.60;86.70
11836;DHT22;5977;51.972;7.640;2023-12-22T02:02:44;18.30;90.90
11836;DHT22;5977;51.972;7.640;2023-12-22T02:05:12;18.40;85.60
11836;DHT22;5977;51.972;7.640;2023-12-22T02:07:41;18.50;90.40
11836;DHT22;5977;51.972;7.640;2023-12-22T02:10:11;18.60;90.30
11836;DHT22;5977;51.972;7.640;2023-12-22T02:12:38;18.30;86.00
11836;DHT22;5977;51.972;7.640;2023-12-22T02:15:07;18.30;87.80
11836;DHT22;5977;51.972;7.640;2023-12-22T02:17:42;18.30;90.70
11836;DHT22;5977;51.972;7.640;2023-12-22T02:20:13;18.50;85.90
11836;DHT22;5977;51.972;7.640;2023-12-22T02:22:43;18.40;89.60
11836;DHT22;5977;51.972;7.640;2023-12-22T02:25:11;18.30;90.00
11836;DHT22;5977;51.972;7.640;2023-12-22T02:27:44;18.10;87.60
11836;DHT22;5977;51.972;7.640;2023-12-22T02:30:15;18.10;90.20
11836;DHT22;5977;51.972;7.640;2023-12-22T02:32:49;18.50;90.90
11836;DHT22;5977;51.972;7.640;2023-12-22T02:35:20;18.30;87.50
11836;DHT22;5977;51.972;7.640;2023-12-22T02:37:51;18.50;90.90
11836;DHT22;5977;51.972;7.640;2023-12-22T02:40:20;18.10;86.00
11836;DHT22;5977;51.972;7.640;2023-12-22T02:42:49;17.60;87.80
11836;DHT22;5977;51.972;7.640;2023-12-22T02:45:18;17.60;90.40
11836;DHT22;5977;51.972;7.640;2023-12-22T02:47:47;17.90;90.80
11836;DHT22;5977;51.972;7.640;2023-12-22T02:50:16;18.20;91.20
11836;DHT22;5977;51.972;7.640;2023-12-22T02:52:44;18.20;90.10
11836;DHT22;5977;51.972;7.640;2023-12-22T02:55:13;17.70;90.70
11836;DHT22;5977;51.972;7.640;2023-12-22T02:57:41;18.30;88.70
11836;DHT22;5977;51.972;7.640;2023-12-22T03:00:10;18.50;91.10
11836;DHT22;5977;51.972;7.640;2023-12-22T03:02:38;18.30;89.30
11836;DHT22;5977;51.972;7.640;2023-12-22T03:05:06;18.00;87.00
11836;DHT22;5977;51.972;7.640;2023-12-22T03:07:34;18.10;89.00
11836;DHT22;5977;51.972;7.640;2023-12-22T03:10:02;18.00;90.50
11836;DHT22;5977;51.972;7.640;2023-12-22T03:12:31;18.40;87.20
11836;DHT22;5977;51.972;7.640;2023-12-22T03:14:59;18.70;89.50
11836;DHT22;5977;51.972;7.640;2023-12-22T03:17:27;18.60;86.40
11836;DHT22;5977;51.972;7.640;2023-12-22T03:19:55;18.50;87.40
11836;DHT22;5977;51.972;7.640;2023-12-22T03:22:23;18.50;89.60
11836;DHT22;5977;51.972;7.640;2023-12-22T03:24:51;18.60;87.80
11836;DHT22;5977;51.972;7.640;2023-12-22T03:27:19;18.50;85.70
11836;DHT22;5977;51.972;7.640;2023-12-22T03:29:48;18.10;88.80
11836;DHT22;5977;51.972;7.640;2023-12-22T03:32:16;18.40;90.30
11836;DHT22;5977;51.972;7.640;2023-12-22T03:34:44;18.20;87.40
11836;DHT22;5977;51.972;7.640;2023-12-22T03:37:12;17.70;87.90
11836;DHT22;5977;51.972;7.640;2023-12-22T03:39:40;18.20;90.90
11836;DHT22;5977;51.972;7.640;2023-12-22T03:42:08;18.00;88.00
11836;DHT22;5977;51.972;7.640;2023-12-22T03:44:36;18.20;88.40
11836;DHT22;5977;51.972;7.640;2023-12-22T03:47:05;18.20;88.00
11836;DHT22;5977;51.972;7.640;2023-12-22T03:49:34;18.40;90.40
11836;DHT22;5977;51.972;7.640;2023-12-22T03:52:02;18.20;88.00
11836;DHT22;5977;51.972;7.640;2023-12-22T03:54:30;18.50;87.40
11836;DHT22;5977;51.972;7.640;2023-12-22T03:56:57;18.40;86.30
11836;DHT22;5977;51.972;7.640;2023-12-22T03:59:25;18.20;88.90
11836;DHT22;5977;51.972;7.640;2023-12-22T04:01:53;18.40;87.60
11836;DHT22;5977;51.972;7.640;2023-12-22T04:04:25;18.40;88.90
11836;DHT22;5977;51.972;7.640;2023-12-22T04:06:54;18.50;88.60
11836;DHT22;5977;51.972;7.640;2023-12-22T04:09:22;18.30;89.40
11836;DHT22;5977;51.972;7.640;2023-12-22T04:11:50;18.30;86.80
11836;DHT22;5977;51.972;7.640;2023-12-22T04:14:18;18.50;87.10
11836;DHT22;5977;51.972;7.640;2023-12-22T04:16:46;18.40;84.10
11836;DHT22;5977;51.972;7.640;2023-12-22T04:19:14;18.50;87.40
11836;DHT22;5977;51.972;7.640;2023-12-22T04:21:43;18.10;83.30
11836;DHT22;5977;51.972;7.640;2023-12-22T04:24:11;18.20;88.80
11836;DHT22;5977;51.972;7.640;2023-12-22T04:26:39;18.30;89.20
11836;DHT22;5977;51.972;7.640;2023-12-22T04:29:07;18.20;85.30
11836;DHT22;5977;51.972;7.640;2023-12-22T04:31:35;18.20;88.30
11836;DHT22;5977;51.972;7.640;2023-12-22T04:34:03;18.00;86.70
11836;DHT22;5977;51.972;7.640;2023-12-22T04:36:32;18.10;90.10
11836;DHT22;5977;51.972;7.640;2023-12-22T04:39:01;18.10;90.40
11836;DHT22;5977;51.972;7.640;2023-12-22T04:41:28;17.70;88.80
11836;DHT22;5977;51.972;7.640;2023-12-22T04:43:56;18.10;89.80
11836;DHT22;5977;51.972;7.640;2023-12-22T04:46:24;18.50;88.80
11836;DHT22;5977;51.972;7.640;2023-12-22T04:48:52;18.30;85.90
11836;DHT22;5977;51.972;7.640;2023-12-22T04:51:20;18.20;89.20
11836;DHT22;5977;51.972;7.640;2023-12-22T04:53:48;18.20;85.80
11836;DHT22;5977;51.972;7.640;2023-12-22T04:56:17;17.80;85.80
11836;DHT22;5977;51.972;7.640;2023-12-22T04:58:46;18.00;88.40
11836;DHT22;5977;51.972;7.640;2023-12-22T05:01:17;17.90;88.90
11836;DHT22;5977;51.972;7.640;2023-12-22T05:03:46;18.00;89.50
11836;DHT22;5977;51.972;7.640;2023-12-22T05:06:14;17.90;86.20
11836;DHT22;5977;51.972;7.640;2023-12-22T05:08:41;17.60;86.30
11836;DHT22;5977;51.972;7.640;2023-12-22T05:11:09;18.10;90.00
11836;DHT22;5977;51.972;7.640;2023-12-22T05:13:39;18.20;86.10
11836;DHT22;5977;51.972;7.640;2023-12-22T05:16:09;18.00;89.10
11836;DHT22;5977;51.972;7.640;2023-12-22T05:18:39;18.50;87.50
11836;DHT22;5977;51.972;7.640;2023-12-22T05:21:12;18.40;84.90
11836;DHT22;5977;51.972;7.640;2023-12-22T05:23:40;17.70;83.50
11836;DHT22;5977;51.972;7.640;2023-12-22T05:26:08;17.80;88.10
11836;DHT22;5977;51.972;7.640;2023-12-22T05:28:36;17.60;85.90
11836;DHT22;5977;51.972;7.640;2023-12-22T05:31:05;18.00;89.50
11836;DHT22;5977;51.972;7.640;2023-12-22T05:33:33;18.00;88.90
11836;DHT22;5977;51.972;7.640;2023-12-22T05:36:01;18.00;86.50
11836;DHT22;5977;51.972;7.640;2023-12-22T05:38:29;18.00;86.50
11836;DHT22;5977;51.972;7.640;2023-12-22T05:40:57;18.10;86.30
11836;DHT22;5977;51.972;7.640;2023-12-22T05:43:25;18.00;85.40
11836;DHT22;5977;51.972;7.640;2023-12-22T05:45:53;18.20;87.40
11836;DHT22;5977;51.972;7.640;2023-12-22T05:48:22;18.20;87.40
11836;DHT22;5977;51.972;7.640;2023-12-22T05:50:50;18.30;83.60
11836;DHT22;5977;51.972;7.640;2023-12-22T05:53:18;18.30;87.60
11836;DHT22;5977;51.972;7.640;2023-12-22T05:55:46;18.30;86.30
11836;DHT22;5977;51.972;7.640;2023-12-22T05:58:14;18.70;88.80
11836;DHT22;5977;51.972;7.640;2023-12-22T06:00:42;18.40;87.00
11836;DHT22;5977;51.972;7.640;2023-12-22T06:03:10;18.70;84.20
11836;DHT22;5977;51.972;7.640;2023-12-22T06:05:39;18.90;84.80
11836;DHT22;5977;51.972;7.640;2023-12-22T06:08:07;18.60;81.20
11836;DHT22;5977;51.972;7.640;2023-12-22T06:10:36;18.60;82.40
11836;DHT22;5977;51.972;7.640;2023-12-22T06:13:04;18.60;81.40
11836;DHT22;5977;51.972;7.640;2023-12-22T06:15:33;18.50;82.50
11836;DHT22;5977;51.972;7.640;2023-12-22T06:18:01;18.50;82.50
11836;DHT22;5977;51.972;7.640;2023-12-22T06:20:29;18.60;84.00
11836;DHT22;5977;51.972;7.640;2023-12-22T06:22:58;18.60;84.80
11836;DHT22;5977;51.972;7.640;2023-12-22T06:25:26;18.90;82.40
11836;DHT22;5977;51.972;7.640;2023-12-22T06:27:54;19.00;83.50
11836;DHT22;5977;51.972;7.640;2023-12-22T06:30:21;19.10;83.90
11836;DHT22;5977;51.972;7.640;2023-12-22T06:32:50;18.60;84.60
11836;DHT22;5977;51.972;7.640;2023-12-22T06:35:18;18.80;82.90
11836;DHT22;5977;51.972;7.640;2023-12-22T06:37:50;18.60;81.90
11836;DHT22;5977;51.972;7.640;2023-12-22T06:40:20;18.50;84.80
11836;DHT22;5977;51.972;7.640;2023-12-22T06:42:48;18.80;84.80
11836;DHT22;5977;51.972;7.640;2023-12-22T06:45:16;19.10;84.70
11836;DHT22;5977;51.972;7.640;2023-12-22T06:47:44;18.90;84.60
11836;DHT22;5977;51.972;7.640;2023-12-22T06:50:12;18.70;80.90
11836;DHT22;5977;51.972;7.640;2023-12-22T06:52:40;18.20;81.40
11836;DHT22;5977;51.972;7.640;2023-12-22T06:55:09;18.20;84.00
11836;DHT22;5977;51.972;7.640;2023-12-22T06:57:39;18.60;83.50
11836;DHT22;5977;51.972;7.640;2023-12-22T07:00:09;18.90;85.00
11836;DHT22;5977;51.972;7.640;2023-12-22T07:02:37;18.70;83.70
11836;DHT22;5977;51.972;7.640;2023-12-22T07:05:31;19.00;83.50
11836;DHT22;5977;51.972;7.640;2023-12-22T07:07:59;18.60;84.30
11836;DHT22;5977;51.972;7.640;2023-12-22T07:10:27;18.50;83.90
11836;DHT22;5977;51.972;7.640;2023-12-22T07:12:56;18.50;84.90
11836;DHT22;5977;51.972;7.640;2023-12-22T07:15:24;18.80;84.30
11836;DHT22;5977;51.972;7.640;2023-12-22T07:17:52;18.80;86.00
11836;DHT22;5977;51.972;7.640;2023-12-22T07:20:20;18.90;84.60
11836;DHT22;5977;51.972;7.640;2023-12-22T07:22:48;19.00;84.60
11836;DHT22;5977;51.972;7.640;2023-12-22T07:25:18;18.80;84.10
11836;DHT22;5977;51.972;7.640;2023-12-22T07:27:47;18.80;84.00
11836;DHT22;5977;51.972;7.640;2023-12-22T07:30:16;18.70;84.90
11836;DHT22;5977;51.972;7.640;2023-12-22T07:32:44;18.40;82.00
11836;DHT22;5977;51.972;7.640;2023-12-22T07:35:15;18.30;85.60
11836;DHT22;5977;51.972;7.640;2023-12-22T07:37:44;18.40;82.50
11836;DHT22;5977;51.972;7.640;2023-12-22T07:40:12;18.50;84.80
11836;DHT22;5977;51.972;7.640;2023-12-22T07:42:43;18.80;86.60
11836;DHT22;5977;51.972;7.640;2023-12-22T07:45:11;18.60;84.70
11836;DHT22;5977;51.972;7.640;2023-12-22T07:47:42;18.80;83.30
11836;DHT22;5977;51.972;7.640;2023-12-22T07:50:10;18.90;84.30
11836;DHT22;5977;51.972;7.640;2023-12-22T07:52:38;18.80;83.90
11836;DHT22;5977;51.972;7.640;2023-12-22T07:55:08;18.70;81.40
11836;DHT22;5977;51.972;7.640;2023-12-22T07:57:37;18.80;85.10
11836;DHT22;5977;51.972;7.640;2023-12-22T08:00:06;18.80;83.20
11836;DHT22;5977;51.972;7.640;2023-12-22T08:02:38;18.70;83.60
11836;DHT22;5977;51.972;7.640;2023-12-22T08:05:08;19.10;82.80
11836;DHT22;5977;51.972;7.640;2023-12-22T08:07:35;19.10;82.70
11836;DHT22;5977;51.972;7.640;2023-12-22T08:10:05;18.80;84.80
11836;DHT22;5977;51.972;7.640;2023-12-22T08:12:33;18.40;83.50
11836;DHT22;5977;51.972;7.640;2023-12-22T08:15:02;18.90;81.90
11836;DHT22;5977;51.972;7.640;2023-12-22T08:17:30;18.80;85.10
11836;DHT22;5977;51.972;7.640;2023-12-22T08:19:58;18.90;84.40
11836;DHT22;5977;51.972;7.640;2023-12-22T08:22:39;19.00;84.30
11836;DHT22;5977;51.972;7.640;2023-12-22T08:25:12;18.70;83.10
11836;DHT22;5977;51.972;7.640;2023-12-22T08:27:40;18.80;85.50
11836;DHT22;5977;51.972;7.640;2023-12-22T08:30:09;18.70;84.40
11836;DHT22;5977;51.972;7.640;2023-12-22T08:32:37;18.90;81.30
11836;DHT22;5977;51.972;7.640;2023-12-22T08:35:06;18.70;83.80
11836;DHT22;5977;51.972;7.640;2023-12-22T08:37:35;18.90;83.30
11836;DHT22;5977;51.972;7.640;2023-12-22T08:40:06;18.90;84.80
11836;DHT22;5977;51.972;7.640;2023-12-22T08:42:35;18.10;80.50
11836;DHT22;5977;51.972;7.640;2023-12-22T08:45:04;17.40;84.50
11836;DHT22;5977;51.972;7.640;2023-12-22T08:47:32;16.80;81.10
11836;DHT22;5977;51.972;7.640;2023-12-22T08:50:00;17.10;84.50
11836;DHT22;5977;51.972;7.640;2023-12-22T08:52:31;16.40;82.40
11836;DHT22;5977;51.972;7.640;2023-12-22T08:55:00;16.50;88.40
11836;DHT22;5977;51.972;7.640;2023-12-22T08:57:29;16.50;82.40
11836;DHT22;5977;51.972;7.640;2023-12-22T08:59:57;16.50;85.20
11836;DHT22;5977;51.972;7.640;2023-12-22T09:02:25;16.30;83.30
11836;DHT22;5977;51.972;7.640;2023-12-22T09:04:53;16.20;84.40
11836;DHT22;5977;51.972;7.640;2023-12-22T09:07:21;15.90;84.60
11836;DHT22;5977;51.972;7.640;2023-12-22T09:09:51;16.30;85.30
11836;DHT22;5977;51.972;7.640;2023-12-22T09:12:19;15.80;83.60
11836;DHT22;5977;51.972;7.640;2023-12-22T09:14:49;15.70;84.90
11836;DHT22;5977;51.972;7.640;2023-12-22T09:17:17;16.10;85.70
11836;DHT22;5977;51.972;7.640;2023-12-22T09:19:45;15.70;83.30
11836;DHT22;5977;51.972;7.640;2023-12-22T09:22:13;15.90;84.40
11836;DHT22;5977;51.972;7.640;2023-12-22T09:24:40;15.60;85.80
11836;DHT22;5977;51.972;7.640;2023-12-22T09:27:08;15.70;85.70
11836;DHT22;5977;51.972;7.640;2023-12-22T09:29:36;15.80;86.30
11836;DHT22;5977;51.972;7.640;2023-12-22T09:32:06;16.10;84.70
11836;DHT22;5977;51.972;7.640;2023-12-22T09:34:34;16.70;83.90
11836;DHT22;5977;51.972;7.640;2023-12-22T09:37:02;16.60;80.80
11836;DHT22;5977;51.972;7.640;2023-12-22T09:39:30;16.80;82.70
11836;DHT22;5977;51.972;7.640;2023-12-22T09:41:58;17.20;79.80
11836;DHT22;5977;51.972;7.640;2023-12-22T09:44:30;16.90;80.90
11836;DHT22;5977;51.972;7.640;2023-12-22T09:47:04;16.70;78.90
11836;DHT22;5977;51.972;7.640;2023-12-22T09:49:34;17.00;80.60
11836;DHT22;5977;51.972;7.640;2023-12-22T09:52:02;16.70;79.10
11836;DHT22;5977;51.972;7.640;2023-12-22T09:54:31;16.30;79.60
11836;DHT22;5977;51.972;7.640;2023-12-22T09:57:00;16.20;81.50
11836;DHT22;5977;51.972;7.640;2023-12-22T09:59:48;16.00;82.00
11836;DHT22;5977;51.972;7.640;2023-12-22T10:02:16;16.10;81.90
11836;DHT22;5977;51.972;7.640;2023-12-22T10:04:45;15.90;82.70
11836;DHT22;5977;51.972;7.640;2023-12-22T10:07:15;15.90;82.00
11836;DHT22;5977;51.972;7.640;2023-12-22T10:09:44;15.60;81.20
11836;DHT22;5977;51.972;7.640;2023-12-22T10:12:14;15.80;82.50
11836;DHT22;5977;51.972;7.640;2023-12-22T10:14:43;15.70;81.70
11836;DHT22;5977;51.972;7.640;2023-12-22T10:17:11;15.50;81.10
11836;DHT22;5977;51.972;7.640;2023-12-22T10:19:39;15.10;83.80
11836;DHT22;5977;51.972;7.640;2023-12-22T10:22:08;15.00;83.70
11836;DHT22;5977;51.972;7.640;2023-12-22T10:24:37;15.30;84.30
11836;DHT22;5977;51.972;7.640;2023-12-22T10:27:05;15.10;81.40
11836;DHT22;5977;51.972;7.640;2023-12-22T10:29:34;14.30;84.80
11836;DHT22;5977;51.972;7.640;2023-12-22T10:32:03;14.20;84.60
11836;DHT22;5977;51.972;7.640;2023-12-22T10:34:34;14.00;84.10
11836;DHT22;5977;51.972;7.640;2023-12-22T10:37:03;14.00;86.30
11836;DHT22;5977;51.972;7.640;2023-12-22T10:39:32;13.70;84.00
11836;DHT22;5977;51.972;7.640;2023-12-22T10:42:00;14.30;87.00
11836;DHT22;5977;51.972;7.640;2023-12-22T10:44:29;15.00;85.00
11836;DHT22;5977;51.972;7.640;2023-12-22T10:46:58;14.70;83.00
11836;DHT22;5977;51.972;7.640;2023-12-22T10:49:26;14.40;84.30
11836;DHT22;5977;51.972;7.640;2023-12-22T10:51:54;14.60;85.40
11836;DHT22;5977;51.972;7.640;2023-12-22T10:54:23;14.60;84.90
11836;DHT22;5977;51.972;7.640;2023-12-22T10:56:52;14.50;85.40
11836;DHT22;5977;51.972;7.640;2023-12-22T10:59:23;14.40;84.20
11836;DHT22;5977;51.972;7.640;2023-12-22T11:01:51;14.20;85.80
11836;DHT22;5977;51.972;7.640;2023-12-22T11:04:22;14.80;85.40
11836;DHT22;5977;51.972;7.640;2023-12-22T11:06:52;14.70;84.70
11836;DHT22;5977;51.972;7.640;2023-12-22T11:09:21;15.00;85.40
11836;DHT22;5977;51.972;7.640;2023-12-22T11:11:53;15.40;82.00
11836;DHT22;5977;51.972;7.640;2023-12-22T11:14:24;16.10;82.00
11836;DHT22;5977;51.972;7.640;2023-12-22T11:16:54;15.80;81.20
11836;DHT22;5977;51.972;7.640;2023-12-22T11:19:23;15.40;81.20
11836;DHT22;5977;51.972;7.640;2023-12-22T11:21:53;16.50;84.10
11836;DHT22;5977;51.972;7.640;2023-12-22T11:24:22;18.10;80.70
11836;DHT22;5977;51.972;7.640;2023-12-22T11:26:53;18.80;78.00
11836;DHT22;5977;51.972;7.640;2023-12-22T11:29:23;19.20;76.50
11836;DHT22;5977;51.972;7.640;2023-12-22T11:31:53;19.40;75.70
11836;DHT22;5977;51.972;7.640;2023-12-22T11:34:23;19.60;75.30
11836;DHT22;5977;51.972;7.640;2023-12-22T11:36:53;19.70;75.20
11836;DHT22;5977;51.972;7.640;2023-12-22T11:39:22;19.80;75.30
11836;DHT22;5977;51.972;7.640;2023-12-22T11:41:50;19.80;75.30
11836;DHT22;5977;51.972;7.640;2023-12-22T11:44:20;19.80;75.30
11836;DHT22;5977;51.972;7.640;2023-12-22T11:46:48;19.90;75.30
11836;DHT22;5977;51.972;7.640;2023-12-22T11:49:16;19.90;75.40
11836;DHT22;5977;51.972;7.640;2023-12-22T11:51:44;20.00;75.60
11836;DHT22;5977;51.972;7.640;2023-12-22T11:54:43;20.00;75.60
11836;DHT22;5977;51.972;7.640;2023-12-22T11:57:30;20.00;75.60
11836;DHT22;5977;51.972;7.640;2023-12-22T12:00:02;20.00;75.80
11836;DHT22;5977;51.972;7.640;2023-12-22T12:02:39;20.00;76.00
11836;DHT22;5977;51.972;7.640;2023-12-22T12:05:09;20.00;76.30
11836;DHT22;5977;51.972;7.640;2023-12-22T12:07:38;20.00;76.10
11836;DHT22;5977;51.972;7.640;2023-12-22T12:10:07;20.00;75.90
11836;DHT22;5977;51.972;7.640;2023-12-22T12:12:35;20.10;76.70
11836;DHT22;5977;51.972;7.640;2023-12-22T12:15:10;20.20;77.50
11836;DHT22;5977;51.972;7.640;2023-12-22T12:17:39;20.10;76.20
11836;DHT22;5977;51.972;7.640;2023-12-22T12:20:07;20.10;76.00
11836;DHT22;5977;51.972;7.640;2023-12-22T12:22:36;20.10;76.00
11836;DHT22;5977;51.972;7.640;2023-12-22T12:25:09;18.90;73.60
11836;DHT22;5977;51.972;7.640;2023-12-22T12:28:01;17.70;77.70
11836;DHT22;5977;51.972;7.640;2023-12-22T12:30:31;17.50;79.70
11836;DHT22;5977;51.972;7.640;2023-12-22T12:32:59;16.80;77.80
11836;DHT22;5977;51.972;7.640;2023-12-22T12:35:33;16.00;81.50
11836;DHT22;5977;51.972;7.640;2023-12-22T12:38:06;15.60;82.50
11836;DHT22;5977;51.972;7.640;2023-12-22T12:40:36;15.90;83.50
11836;DHT22;5977;51.972;7.640;2023-12-22T12:43:06;15.80;83.10
11836;DHT22;5977;51.972;7.640;2023-12-22T12:45:35;15.60;81.90
11836;DHT22;5977;51.972;7.640;2023-12-22T12:48:04;16.00;83.00
11836;DHT22;5977;51.972;7.640;2023-12-22T12:50:34;15.60;84.80
11836;DHT22;5977;51.972;7.640;2023-12-22T12:53:05;15.70;84.40
11836;DHT22;5977;51.972;7.640;2023-12-22T12:55:33;16.10;83.20
11836;DHT22;5977;51.972;7.640;2023-12-22T12:58:02;16.30;82.40
11836;DHT22;5977;51.972;7.640;2023-12-22T13:00:32;15.80;81.70
11836;DHT22;5977;51.972;7.640;2023-12-22T13:03:05;15.70;83.40
11836;DHT22;5977;51.972;7.640;2023-12-22T13:05:34;16.00;82.60
11836;DHT22;5977;51.972;7.640;2023-12-22T13:08:09;15.90;82.50
11836;DHT22;5977;51.972;7.640;2023-12-22T13:10:38;15.80;81.20
11836;DHT22;5977;51.972;7.640;2023-12-22T13:13:07;15.80;81.30
11836;DHT22;5977;51.972;7.640;2023-12-22T13:15:34;15.70;82.70
11836;DHT22;5977;51.972;7.640;2023-12-22T13:18:04;16.50;82.70
11836;DHT22;5977;51.972;7.640;2023-12-22T13:20:32;15.90;81.60
11836;DHT22;5977;51.972;7.640;2023-12-22T13:23:01;15.50;82.70
11836;DHT22;5977;51.972;7.640;2023-12-22T13:25:38;15.40;84.70
11836;DHT22;5977;51.972;7.640;2023-12-22T13:28:06;15.50;84.30
11836;DHT22;5977;51.972;7.640;2023-12-22T13:30:34;15.30;83.60
11836;DHT22;5977;51.972;7.640;2023-12-22T13:33:04;15.30;85.10
11836;DHT22;5977;51.972;7.640;2023-12-22T13:35:32;15.30;85.80
11836;DHT22;5977;51.972;7.640;2023-12-22T13:38:07;16.20;83.30
11836;DHT22;5977;51.972;7.640;2023-12-22T13:40:35;16.00;82.70
11836;DHT22;5977;51.972;7.640;2023-12-22T13:43:05;16.00;83.30
11836;DHT22;5977;51.972;7.640;2023-12-22T13:45:34;16.10;83.00
11836;DHT22;5977;51.972;7.640;2023-12-22T13:48:05;16.10;82.30
11836;DHT22;5977;51.972;7.640;2023-12-22T13:50:33;15.60;83.40
11836;DHT22;5977;51.972;7.640;2023-12-22T13:53:09;16.20;84.10
11836;DHT22;5977;51.972;7.640;2023-12-22T13:55:37;15.70;83.20
11836;DHT22;5977;51.972;7.640;2023-12-22T13:58:05;15.70;85.50
11836;DHT22;5977;51.972;7.640;2023-12-22T14:00:34;15.90;83.10
11836;DHT22;5977;51.972;7.640;2023-12-22T14:03:05;16.00;83.10
11836;DHT22;5977;51.972;7.640;2023-12-22T14:05:34;15.50;83.50
11836;DHT22;5977;51.972;7.640;2023-12-22T14:08:03;15.30;85.00
11836;DHT22;5977;51.972;7.640;2023-12-22T14:10:31;15.40;86.70
11836;DHT22;5977;51.972;7.640;2023-12-22T14:12:59;15.50;84.80
11836;DHT22;5977;51.972;7.640;2023-12-22T14:15:29;15.60;84.70
11836;DHT22;5977;51.972;7.640;2023-12-22T14:18:11;15.60;85.00
11836;DHT22;5977;51.972;7.640;2023-12-22T14:20:39;15.50;84.90
11836;DHT22;5977;51.972;7.640;2023-12-22T14:23:07;15.50;84.90
11836;DHT22;5977;51.972;7.640;2023-12-22T14:25:40;15.20;85.20
11836;DHT22;5977;51.972;7.640;2023-12-22T14:28:08;15.40;86.50
11836;DHT22;5977;51.972;7.640;2023-12-22T14:30:36;16.00;84.30
11836;DHT22;5977;51.972;7.640;2023-12-22T14:33:04;16.20;84.10
11836;DHT22;5977;51.972;7.640;2023-12-22T14:35:33;15.80;83.30
11836;DHT22;5977;51.972;7.640;2023-12-22T14:38:01;15.90;84.00
11836;DHT22;5977;51.972;7.640;2023-12-22T14:40:29;16.10;83.30
11836;DHT22;5977;51.972;7.640;2023-12-22T14:42:57;16.10;83.00
11836;DHT22;5977;51.972;7.640;2023-12-22T14:45:25;15.90;84.00
11836;DHT22;5977;51.972;7.640;2023-12-22T14:47:53;15.90;83.30
11836;DHT22;5977;51.972;7.640;2023-12-22T14:50:21;15.90;82.70
11836;DHT22;5977;51.972;7.640;2023-12-22T14:52:50;15.90;85.20
11836;DHT22;5977;51.972;7.640;2023-12-22T14:55:18;15.90;83.50
11836;DHT22;5977;51.972;7.640;2023-12-22T14:57:47;15.90;83.50
11836;DHT22;5977;51.972;7.640;2023-12-22T15:00:15;15.40;84.20
11836;DHT22;5977;51.972;7.640;2023-12-22T15:02:44;15.00;85.90
11836;DHT22;5977;51.972;7.640;2023-12-22T15:05:12;15.10;86.30
11836;DHT22;5977;51.972;7.640;2023-12-22T15:07:40;15.60;85.60
11836;DHT22;5977;51.972;7.640;2023-12-22T15:10:10;15.40;85.50
11836;DHT22;5977;51.972;7.640;2023-12-22T15:12:38;15.70;85.40
11836;DHT22;5977;51.972;7.640;2023-12-22T15:15:09;15.80;85.40
11836;DHT22;5977;51.972;7.640;2023-12-22T15:17:37;15.50;82.60
11836;DHT22;5977;51.972;7.640;2023-12-22T15:20:06;16.00;84.40
11836;DHT22;5977;51.972;7.640;2023-12-22T15:22:38;15.60;86.40
11836;DHT22;5977;51.972;7.640;2023-12-22T15:25:07;15.80;84.10
11836;DHT22;5977;51.972;7.640;2023-12-22T15:27:36;16.20;82.30
11836;DHT22;5977;51.972;7.640;2023-12-22T15:30:07;16.10;82.70
11836;DHT22;5977;51.972;7.640;2023-12-22T15:32:35;15.50;83.60
11836;DHT22;5977;51.972;7.640;2023-12-22T15:35:03;15.70;83.20
11836;DHT22;5977;51.972;7.640;2023-12-22T15:37:31;16.10;84.20
11836;DHT22;5977;51.972;7.640;2023-12-22T15:40:02;16.30;83.40
11836;DHT22;5977;51.972;7.640;2023-12-22T15:42:30;16.00;80.40
11836;DHT22;5977;51.972;7.640;2023-12-22T15:45:00;16.10;83.90
11836;DHT22;5977;51.972;7.640;2023-12-22T15:47:28;15.80;82.10
11836;DHT22;5977;51.972;7.640;2023-12-22T15:49:56;16.00;81.80
11836;DHT22;5977;51.972;7.640;2023-12-22T15:52:23;15.60;82.50
11836;DHT22;5977;51.972;7.640;2023-12-22T15:54:51;15.60;83.60
11836;DHT22;5977;51.972;7.640;2023-12-22T15:57:19;15.40;83.10